createdAt,value
2022-10-19T00:00:04.739Z,99345.73
2022-10-19T00:02:57.124Z,99347.89
2022-10-19T00:05:31.858Z,99349.66
2022-10-19T00:08:05.693Z,99348.78
2022-10-19T00:10:44.132Z,99348.79
2022-10-19T00:13:20.413Z,99345.41
2022-10-19T00:15:54.982Z,99343.98
2022-10-19T00:18:30.508Z,99336.69
2022-10-19T00:21:11.504Z,99335.23
2022-10-19T00:23:44.883Z,99334.11
2022-10-19T00:26:17.723Z,99337.45
2022-10-19T00:28:51.385Z,99333.38
2022-10-19T00:31:23.891Z,99335.14
2022-10-19T00:34:00.337Z,99336.34
2022-10-19T00:36:34.294Z,99338.83
2022-10-19T00:39:10.069Z,99343.42
2022-10-19T00:41:43.075Z,99339.19
2022-10-19T00:44:46.370Z,99339.52
2022-10-19T00:47:19.630Z,99341.80
2022-10-19T00:49:54.150Z,99342.17
2022-10-19T00:52:30.086Z,99342.56
2022-10-19T00:55:04.757Z,99337.46
2022-10-19T00:57:36.811Z,99328.84
2022-10-19T01:00:13.515Z,99321.11
2022-10-19T01:02:48.930Z,99318.27
2022-10-19T01:05:21.994Z,99315.84
2022-10-19T01:07:55.353Z,99310.72
2022-10-19T01:10:45.308Z,99305.23
2022-10-19T01:13:28.938Z,99303.10
2022-10-19T01:16:06.674Z,99300.45
2022-10-19T01:18:45.017Z,99304.87
2022-10-19T01:21:22.742Z,99302.91
2022-10-19T01:24:24.242Z,99302.35
2022-10-19T01:27:38.960Z,99298.83
2022-10-19T01:30:15.051Z,99290.91
2022-10-19T01:33:04.161Z,99293.06
2022-10-19T01:35:41.771Z,99294.27
2022-10-19T01:38:22.015Z,99299.55
2022-10-19T01:41:05.086Z,99295.27
2022-10-19T01:43:43.040Z,99286.02
2022-10-19T01:46:18.412Z,99282.81
2022-10-19T01:48:56.271Z,99280.83
2022-10-19T01:51:31.656Z,99285.64
2022-10-19T01:54:06.313Z,99287.66
2022-10-19T01:56:42.251Z,99295.37
2022-10-19T01:59:14.763Z,99300.11
2022-10-19T02:01:47.965Z,99293.90
2022-10-19T02:04:24.467Z,99291.84
2022-10-19T02:06:58.613Z,99295.93
2022-10-19T02:09:32.244Z,99290.64
2022-10-19T02:12:07.028Z,99288.20
2022-10-19T02:14:44.654Z,99285.33
2022-10-19T02:17:19.971Z,99279.61
2022-10-19T02:19:54.380Z,99281.08
2022-10-19T02:22:27.773Z,99284.45
2022-10-19T02:25:00.820Z,99276.80
2022-10-19T02:27:36.332Z,99273.11
2022-10-19T02:30:11.474Z,99271.04
2022-10-19T02:32:44.214Z,99274.02
2022-10-19T02:35:17.895Z,99274.20
2022-10-19T02:37:51.019Z,99273.70
2022-10-19T02:40:27.329Z,99267.51
2022-10-19T02:43:02.988Z,99260.77
2022-10-19T02:45:39.403Z,99261.46
2022-10-19T02:48:15.077Z,99257.48
2022-10-19T02:50:48.756Z,99267.42
2022-10-19T02:53:49.416Z,99273.92
2022-10-19T03:00:47.165Z,99273.73
2022-10-19T03:03:21.432Z,99279.06
2022-10-19T03:05:57.985Z,99282.41
2022-10-19T03:08:33.871Z,99277.64
2022-10-19T03:11:09.714Z,99279.05
2022-10-19T03:13:44.037Z,99281.16
2022-10-19T03:16:18.311Z,99278.70
2022-10-19T03:18:52.506Z,99276.78
2022-10-19T03:21:29.822Z,99277.02
2022-10-19T03:24:06.148Z,99279.38
2022-10-19T03:26:38.790Z,99279.41
2022-10-19T03:29:13.289Z,99278.55
2022-10-19T03:31:45.631Z,99272.60
2022-10-19T03:34:18.521Z,99277.59
2022-10-19T03:36:53.180Z,99276.90
2022-10-19T03:39:25.276Z,99279.06
2022-10-19T03:41:57.308Z,99277.88
2022-10-19T03:44:32.038Z,99272.11
2022-10-19T03:47:05.068Z,99272.30
2022-10-19T03:49:39.558Z,99273.77
2022-10-19T03:52:17.072Z,99274.14
2022-10-19T03:54:54.647Z,99270.27
2022-10-19T03:57:26.890Z,99269.54
2022-10-19T04:00:04.549Z,99273.98
2022-10-19T04:02:37.827Z,99281.25
2022-10-19T04:05:11.959Z,99283.55
2022-10-19T04:07:45.226Z,99279.83
2022-10-19T04:10:18.475Z,99284.96
2022-10-19T04:12:53.801Z,99278.95
2022-10-19T04:15:27.613Z,99274.73
2022-10-19T04:18:00.088Z,99275.27
2022-10-19T04:20:35.827Z,99276.35
2022-10-19T04:23:09.039Z,99272.13
2022-10-19T04:25:41.828Z,99273.36
2022-10-19T04:28:14.817Z,99277.23
2022-10-19T04:30:47.127Z,99288.70
2022-10-19T04:33:18.929Z,99292.23
2022-10-19T04:35:50.864Z,99284.63
2022-10-19T04:38:22.559Z,99290.98
2022-10-19T04:40:55.588Z,99286.58
2022-10-19T04:43:28.589Z,99284.27
2022-10-19T04:46:05.882Z,99281.64
2022-10-19T04:48:40.023Z,99276.87
2022-10-19T04:51:15.182Z,99279.34
2022-10-19T04:53:49.557Z,99279.70
2022-10-19T04:56:26.309Z,99280.42
2022-10-19T04:59:00.300Z,99278.30
2022-10-19T05:01:33.243Z,99276.73
2022-10-19T05:04:08.461Z,99275.48
2022-10-19T05:06:42.000Z,99269.29
2022-10-19T05:09:13.992Z,99265.92
2022-10-19T05:11:47.925Z,99263.63
2022-10-19T05:14:24.218Z,99256.74
2022-10-19T05:16:56.230Z,99253.04
2022-10-19T05:19:29.998Z,99258.14
2022-10-19T05:22:03.368Z,99256.56
2022-10-19T05:24:37.264Z,99254.09
2022-10-19T05:27:09.410Z,99253.91
2022-10-19T05:29:42.258Z,99251.78
2022-10-19T05:32:19.506Z,99248.08
2022-10-19T05:34:52.736Z,99249.48
2022-10-19T05:37:25.864Z,99249.66
2022-10-19T05:39:59.020Z,99255.13
2022-10-19T05:42:31.141Z,99262.38
2022-10-19T05:45:05.986Z,99264.31
2022-10-19T05:47:41.087Z,99261.32
2022-10-19T05:50:19.508Z,99264.67
2022-10-19T05:52:52.389Z,99267.50
2022-10-19T05:55:26.507Z,99268.75
2022-10-19T05:57:59.635Z,99270.88
2022-10-19T06:00:34.041Z,99266.98
2022-10-19T06:03:08.832Z,99270.14
2022-10-19T06:05:41.626Z,99280.23
2022-10-19T06:08:14.200Z,99282.02
2022-10-19T06:10:48.302Z,99283.24
2022-10-19T06:13:24.412Z,99280.60
2022-10-19T06:15:57.945Z,99281.13
2022-10-19T06:18:32.320Z,99283.77
2022-10-19T06:21:07.658Z,99288.54
2022-10-19T06:26:20.793Z,99291.70
2022-10-19T06:28:54.106Z,99285.17
2022-10-19T06:31:27.255Z,99288.34
2022-10-19T06:34:04.241Z,99295.59
2022-10-19T06:36:39.019Z,99297.86
2022-10-19T06:39:11.039Z,99294.67
2022-10-19T06:41:45.373Z,99289.00
2022-10-19T06:44:19.091Z,99291.63
2022-10-19T06:46:51.687Z,99293.90
2022-10-19T06:49:24.092Z,99295.11
2022-10-19T06:51:56.785Z,99300.94
2022-10-19T06:54:30.904Z,99301.11
2022-10-19T06:57:03.527Z,99302.70
2022-10-19T06:59:36.136Z,99307.66
2022-10-19T07:02:10.983Z,99309.61
2022-10-19T07:04:42.755Z,99313.64
2022-10-19T07:07:15.359Z,99314.87
2022-10-19T07:09:48.075Z,99316.30
2022-10-19T07:12:22.054Z,99316.83
2022-10-19T07:14:59.647Z,99324.45
2022-10-19T07:17:33.308Z,99324.43
2022-10-19T07:20:08.340Z,99328.13
2022-10-19T07:22:41.474Z,99329.70
2022-10-19T07:25:16.762Z,99327.25
2022-10-19T07:27:49.199Z,99321.23
2022-10-19T07:30:23.674Z,99322.66
2022-10-19T07:32:56.666Z,99325.48
2022-10-19T07:35:31.604Z,99327.78
2022-10-19T07:38:04.463Z,99326.36
2022-10-19T07:40:36.865Z,99324.74
2022-10-19T07:43:11.345Z,99324.89
2022-10-19T07:45:44.694Z,99319.92
2022-10-19T07:48:17.357Z,99320.43
2022-10-19T07:50:51.905Z,99325.48
2022-10-19T07:53:25.130Z,99326.09
2022-10-19T07:55:57.945Z,99319.67
2022-10-19T07:58:32.712Z,99318.09
2022-10-19T08:01:07.300Z,99328.04
2022-10-19T08:04:31.818Z,99329.83
2022-10-19T08:06:36.767Z,99323.82
2022-10-19T08:09:09.101Z,99325.27
2022-10-19T08:11:41.609Z,99317.52
2022-10-19T08:14:14.140Z,99322.48
2022-10-19T08:16:49.986Z,99327.06
2022-10-19T08:19:24.569Z,99328.30
2022-10-19T08:21:57.391Z,99327.40
2022-10-19T08:24:29.901Z,99334.50
2022-10-19T08:27:05.693Z,99330.95
2022-10-19T08:29:40.212Z,99324.02
2022-10-19T08:32:16.168Z,99319.79
2022-10-19T08:34:48.095Z,99322.27
2022-10-19T08:37:43.775Z,99322.45
2022-10-19T08:40:22.452Z,99327.27
2022-10-19T08:42:58.835Z,99326.52
2022-10-19T08:45:42.890Z,99324.25
2022-10-19T08:48:28.978Z,99323.54
2022-10-19T08:51:03.310Z,99324.61
2022-10-19T08:53:41.072Z,99327.48
2022-10-19T08:56:45.819Z,99326.77
2022-10-19T08:59:19.381Z,99325.84
2022-10-19T09:01:55.123Z,99327.92
2022-10-19T09:04:30.466Z,99329.33
2022-10-19T09:07:21.188Z,99331.14
2022-10-19T09:09:59.652Z,99332.94
2022-10-19T09:12:41.500Z,99333.13
2022-10-19T09:15:17.263Z,99336.11
2022-10-19T09:17:50.266Z,99337.31
2022-10-19T09:20:27.106Z,99339.06
2022-10-19T09:23:11.111Z,99336.23
2022-10-19T09:25:46.842Z,99337.05
2022-10-19T09:28:36.659Z,99342.03
2022-10-19T09:31:17.341Z,99344.69
2022-10-19T09:33:55.923Z,99347.88
2022-10-19T09:36:56.612Z,99342.16
2022-10-19T09:39:32.154Z,99347.73
2022-10-19T09:42:09.397Z,99350.20
2022-10-19T09:44:45.194Z,99349.19
2022-10-19T09:47:30.891Z,99351.83
2022-10-19T09:50:19.654Z,99352.23
2022-10-19T09:52:52.978Z,99351.25
2022-10-19T09:55:30.763Z,99352.16
2022-10-19T09:58:06.127Z,99353.11
2022-10-19T10:00:42.465Z,99351.05
2022-10-19T10:03:27.283Z,99348.80
2022-10-19T10:06:03.578Z,99352.87
2022-10-19T10:08:37.953Z,99355.70
2022-10-19T10:11:14.631Z,99360.84
2022-10-19T10:13:52.449Z,99360.36
2022-10-19T10:16:25.869Z,99356.11
2022-10-19T10:19:01.687Z,99352.00
2022-10-19T10:21:37.097Z,99348.75
2022-10-19T10:24:20.834Z,99340.85
2022-10-19T10:26:57.101Z,99336.39
2022-10-19T10:29:35.351Z,99341.81
2022-10-19T10:32:13.473Z,99337.41
2022-10-19T10:34:53.823Z,99342.91
2022-10-19T10:37:38.469Z,99338.17
2022-10-19T10:40:23.826Z,99341.45
2022-10-19T10:42:58.160Z,99346.50
2022-10-19T10:45:35.320Z,99352.38
2022-10-19T10:48:27.256Z,99353.84
2022-10-19T10:51:00.612Z,99354.58
2022-10-19T10:53:38.861Z,99347.67
2022-10-19T10:56:26.571Z,99347.44
2022-10-19T10:59:04.314Z,99347.71
2022-10-19T11:01:41.530Z,99344.27
2022-10-19T11:04:18.352Z,99346.54
2022-10-19T11:06:54.965Z,99345.44
2022-10-19T11:09:31.334Z,99341.35
2022-10-19T11:12:06.787Z,99341.15
2022-10-19T11:14:47.588Z,99341.84
2022-10-19T11:17:22.980Z,99347.14
2022-10-19T11:19:56.836Z,99343.73
2022-10-19T11:22:33.772Z,99342.39
2022-10-19T11:25:21.274Z,99333.42
2022-10-19T11:28:02.616Z,99322.46
2022-10-19T11:30:41.570Z,99316.06
2022-10-19T11:33:21.905Z,99311.05
2022-10-19T11:35:55.088Z,99313.89
2022-10-19T11:38:35.538Z,99318.95
2022-10-19T11:41:19.471Z,99317.30
2022-10-19T11:44:03.904Z,99320.38
2022-10-19T11:46:40.342Z,99316.94
2022-10-19T11:49:23.315Z,99313.81
2022-10-19T11:52:02.955Z,99311.38
2022-10-19T11:54:46.336Z,99316.88
2022-10-19T11:57:21.636Z,99314.94
2022-10-19T12:00:33.887Z,99314.05
2022-10-19T12:03:16.675Z,99311.37
2022-10-19T12:06:01.043Z,99306.89
2022-10-19T12:08:56.978Z,99300.57
2022-10-19T12:11:42.619Z,99299.73
2022-10-19T12:14:18.183Z,99299.26
2022-10-19T12:16:57.991Z,99299.48
2022-10-19T12:19:34.970Z,99302.64
2022-10-19T12:22:13.060Z,99299.85
2022-10-19T12:24:46.591Z,99294.64
2022-10-19T12:27:21.790Z,99294.87
2022-10-19T12:29:55.793Z,99292.82
2022-10-19T12:32:28.293Z,99292.96
2022-10-19T12:35:07.059Z,99293.73
2022-10-19T12:37:46.959Z,99296.12
2022-10-19T12:40:27.101Z,99293.16
2022-10-19T12:43:05.023Z,99291.71
2022-10-19T12:45:38.784Z,99292.25
2022-10-19T12:48:25.849Z,99292.11
2022-10-19T12:51:12.306Z,99295.34
2022-10-19T12:53:47.747Z,99291.61
2022-10-19T12:56:22.686Z,99295.30
2022-10-19T12:58:59.802Z,99294.92
2022-10-19T13:01:44.468Z,99291.00
2022-10-19T13:04:19.995Z,99293.24
2022-10-19T13:07:00.452Z,99296.34
2022-10-19T13:09:34.936Z,99303.52
2022-10-19T13:12:47.284Z,99298.04
2022-10-19T13:15:58.801Z,99292.89
2022-10-19T13:19:09.275Z,99294.11
2022-10-19T13:22:13.846Z,99294.33
2022-10-19T13:25:34.100Z,99292.09
2022-10-19T13:28:42.506Z,99298.88
2022-10-19T13:31:33.419Z,99305.13
2022-10-19T13:34:13.515Z,99307.78
2022-10-19T13:37:02.345Z,99307.25
2022-10-19T13:39:40.759Z,99309.38
2022-10-19T13:42:26.678Z,99308.70
2022-10-19T13:44:59.210Z,99307.64
2022-10-19T13:47:39.333Z,99307.10
2022-10-19T13:50:29.791Z,99303.50
2022-10-19T13:53:29.680Z,99302.24
2022-10-19T13:59:51.976Z,99307.91
2022-10-19T14:02:42.315Z,99308.02
2022-10-19T14:05:33.946Z,99304.16
2022-10-19T14:08:15.150Z,99301.02
2022-10-19T14:11:00.751Z,99304.73
2022-10-19T14:13:34.917Z,99306.54
2022-10-19T14:16:21.461Z,99308.69
2022-10-19T14:18:58.473Z,99313.33
2022-10-19T14:21:37.018Z,99317.59
2022-10-19T14:24:22.547Z,99318.84
2022-10-19T14:26:57.875Z,99322.45
2022-10-19T14:29:31.134Z,99316.66
2022-10-19T14:32:06.295Z,99315.80
2022-10-19T14:34:44.278Z,99315.27
2022-10-19T14:37:22.437Z,99314.77
2022-10-19T14:40:08.914Z,99318.13
2022-10-19T14:42:46.457Z,99314.59
2022-10-19T14:45:22.166Z,99310.90
2022-10-19T14:48:08.267Z,99308.96
2022-10-19T14:50:46.794Z,99307.91
2022-10-19T14:53:36.847Z,99302.63
2022-10-19T14:56:12.665Z,99311.99
2022-10-19T14:58:49.390Z,99308.98
2022-10-19T15:01:23.076Z,99308.64
2022-10-19T15:03:56.255Z,99312.00
2022-10-19T15:06:30.165Z,99319.59
2022-10-19T15:09:07.363Z,99316.23
2022-10-19T15:11:49.919Z,99316.59
2022-10-19T15:14:25.899Z,99320.83
2022-10-19T15:17:03.047Z,99322.42
2022-10-19T15:19:41.077Z,99326.67
2022-10-19T15:22:18.809Z,99327.38
2022-10-19T15:25:20.731Z,99336.74
2022-10-19T15:27:54.549Z,99332.14
2022-10-19T15:30:29.888Z,99340.05
2022-10-19T15:33:16.120Z,99334.55
2022-10-19T15:35:51.111Z,99333.13
2022-10-19T15:38:26.321Z,99334.89
2022-10-19T15:41:01.302Z,99334.17
2022-10-19T15:43:52.270Z,99334.34
2022-10-19T15:46:28.382Z,99338.06
2022-10-19T15:49:04.611Z,99340.53
2022-10-19T15:51:39.240Z,99347.39
2022-10-19T15:54:11.918Z,99352.33
2022-10-19T15:56:47.102Z,99352.52
2022-10-19T15:59:21.072Z,99351.62
2022-10-19T16:01:56.342Z,99360.27
2022-10-19T16:04:29.280Z,99355.86
2022-10-19T16:07:01.067Z,99360.45
2022-10-19T16:09:34.849Z,99360.61
2022-10-19T16:12:07.789Z,99366.08
2022-10-19T16:14:40.298Z,99366.40
2022-10-19T16:17:15.007Z,99367.11
2022-10-19T16:19:48.576Z,99375.40
2022-10-19T16:22:23.123Z,99390.06
2022-10-19T16:24:55.467Z,99390.59
2022-10-19T16:27:28.691Z,99385.13
2022-10-19T16:30:04.488Z,99383.54
2022-10-19T16:32:37.771Z,99386.91
2022-10-19T16:35:16.607Z,99386.20
2022-10-19T16:37:48.423Z,99382.31
2022-10-19T16:40:23.279Z,99386.00
2022-10-19T16:42:58.847Z,99390.38
2022-10-19T16:45:32.954Z,99391.59
2022-10-19T16:48:06.558Z,99390.88
2022-10-19T16:50:39.264Z,99391.29
2022-10-19T16:53:13.099Z,99392.73
2022-10-19T16:55:46.380Z,99398.16
2022-10-19T16:58:18.678Z,99398.52
2022-10-19T17:00:51.523Z,99400.21
2022-10-19T17:03:24.711Z,99407.27
2022-10-19T17:05:57.507Z,99412.92
2022-10-19T17:08:36.843Z,99409.64
2022-10-19T17:11:19.733Z,99415.67
2022-10-19T17:13:56.047Z,99417.44
2022-10-19T17:16:30.663Z,99419.03
2022-10-19T17:19:05.954Z,99427.50
2022-10-19T17:21:40.227Z,99427.48
2022-10-19T17:24:21.672Z,99427.83
2022-10-19T17:26:56.236Z,99433.66
2022-10-19T17:29:32.535Z,99437.18
2022-10-19T17:32:07.418Z,99443.14
2022-10-19T17:34:41.484Z,99446.81
2022-10-19T17:37:15.250Z,99446.30
2022-10-19T17:39:51.478Z,99450.20
2022-10-19T17:42:24.165Z,99451.95
2022-10-19T17:44:59.807Z,99456.72
2022-10-19T17:47:32.515Z,99458.67
2022-10-19T17:50:06.296Z,99461.33
2022-10-19T17:52:39.269Z,99463.08
2022-10-19T17:55:13.091Z,99465.37
2022-10-19T17:57:48.209Z,99471.17
2022-10-19T18:00:21.682Z,99462.88
2022-10-19T18:02:54.583Z,99466.74
2022-10-19T18:05:28.205Z,99470.43
2022-10-19T18:08:00.419Z,99465.52
2022-10-19T18:10:35.785Z,99467.47
2022-10-19T18:13:09.769Z,99467.44
2022-10-19T18:15:42.336Z,99471.50
2022-10-19T18:18:14.783Z,99467.20
2022-10-19T18:20:46.993Z,99466.10
2022-10-19T18:23:20.560Z,99470.45
2022-10-19T18:25:55.392Z,99470.77
2022-10-19T18:28:28.933Z,99471.67
2022-10-19T18:31:08.346Z,99476.77
2022-10-19T18:33:42.058Z,99480.42
2022-10-19T18:36:15.274Z,99479.00
2022-10-19T18:38:52.002Z,99478.60
2022-10-19T18:41:26.140Z,99485.10
2022-10-19T18:44:01.453Z,99482.77
2022-10-19T18:46:38.808Z,99486.79
2022-10-19T18:49:12.862Z,99487.85
2022-10-19T18:51:50.746Z,99491.87
2022-10-19T18:54:29.031Z,99491.67
2022-10-19T18:57:04.057Z,99497.64
2022-10-19T18:59:37.507Z,99501.85
2022-10-19T19:02:17.114Z,99502.38
2022-10-19T19:04:57.440Z,99502.03
2022-10-19T19:07:30.219Z,99502.55
2022-10-19T19:10:04.104Z,99506.03
2022-10-19T19:12:39.276Z,99505.98
2022-10-19T19:15:13.095Z,99503.84
2022-10-19T19:17:46.243Z,99502.11
2022-10-19T19:20:18.708Z,99506.52
2022-10-19T19:22:51.037Z,99507.58
2022-10-19T19:25:25.006Z,99510.33
2022-10-19T19:27:56.862Z,99511.38
2022-10-19T19:30:32.514Z,99515.23
2022-10-19T19:33:05.965Z,99518.44
2022-10-19T19:35:49.326Z,99525.46
2022-10-19T19:38:21.645Z,99530.65
2022-10-19T19:40:57.211Z,99535.36
2022-10-19T19:43:29.431Z,99538.44
2022-10-19T19:46:07.881Z,99541.17
2022-10-19T19:48:44.063Z,99543.67
2022-10-19T19:51:23.935Z,99541.48
2022-10-19T19:53:57.168Z,99540.02
2022-10-19T19:56:34.793Z,99545.91
2022-10-19T19:59:07.131Z,99554.61
2022-10-19T20:01:40.528Z,99557.66
2022-10-19T20:04:14.160Z,99564.19
2022-10-19T20:06:46.503Z,99566.85
2022-10-19T20:09:18.947Z,99568.61
2022-10-19T20:11:51.745Z,99570.55
2022-10-19T20:14:25.746Z,99573.27
2022-10-19T20:17:01.380Z,99569.27
2022-10-19T20:19:36.994Z,99570.55
2022-10-19T20:22:09.831Z,99572.54
2022-10-19T20:24:43.338Z,99572.81
2022-10-19T20:27:18.487Z,99574.70
2022-10-19T20:29:59.280Z,99577.09
2022-10-19T20:32:34.334Z,99576.67
2022-10-19T20:35:08.598Z,99579.05
2022-10-19T20:37:41.226Z,99580.89
2022-10-19T20:40:16.950Z,99582.58
2022-10-19T20:42:51.539Z,99589.89
2022-10-19T20:45:25.898Z,99586.29
2022-10-19T20:47:58.869Z,99582.89
2022-10-19T20:50:32.439Z,99584.56
2022-10-19T20:53:07.141Z,99584.39
2022-10-19T20:55:40.451Z,99581.19
2022-10-19T20:58:13.733Z,99581.91
2022-10-19T21:00:47.164Z,99585.86
2022-10-19T21:03:22.354Z,99582.60
2022-10-19T21:05:55.048Z,99587.91
2022-10-19T21:08:29.593Z,99588.46
2022-10-19T21:11:05.792Z,99585.91
2022-10-19T21:13:38.417Z,99587.11
2022-10-19T21:16:17.662Z,99587.59
2022-10-19T21:18:50.968Z,99589.17
2022-10-19T21:21:27.211Z,99586.40
2022-10-19T21:24:04.339Z,99587.98
2022-10-19T21:26:38.189Z,99587.17
2022-10-19T21:29:11.424Z,99589.67
2022-10-19T21:31:47.933Z,99589.81
2022-10-19T21:34:23.203Z,99586.46
2022-10-19T21:36:56.122Z,99585.45
2022-10-19T21:39:28.874Z,99585.22
2022-10-19T21:42:00.795Z,99582.27
2022-10-19T21:44:34.501Z,99583.78
2022-10-19T21:47:07.073Z,99585.29
2022-10-19T21:49:43.089Z,99580.66
2022-10-19T21:52:16.259Z,99579.02
2022-10-19T21:54:48.208Z,99577.90
2022-10-19T21:57:24.177Z,99579.30
2022-10-19T21:59:56.879Z,99583.02
2022-10-19T22:02:29.422Z,99579.18
2022-10-19T22:05:03.339Z,99585.58
2022-10-19T22:07:37.921Z,99589.07
2022-10-19T22:10:11.632Z,99589.27
2022-10-19T22:12:44.115Z,99591.60
2022-10-19T22:15:17.335Z,99590.61
2022-10-19T22:17:50.877Z,99589.81
2022-10-19T22:20:23.921Z,99589.93
2022-10-19T22:22:55.720Z,99591.78
2022-10-19T22:25:30.216Z,99590.48
2022-10-19T22:28:04.305Z,99593.09
2022-10-19T22:33:10.559Z,99590.19
2022-10-19T22:35:43.220Z,99587.83
2022-10-19T22:38:15.764Z,99591.80
2022-10-19T22:40:48.535Z,99594.17
2022-10-19T22:43:21.229Z,99592.19
2022-10-19T22:45:53.528Z,99591.19
2022-10-19T22:48:25.658Z,99592.83
2022-10-19T22:51:00.198Z,99598.89
2022-10-19T22:53:35.298Z,99605.21
2022-10-19T22:56:08.892Z,99605.13
2022-10-19T22:58:42.395Z,99612.44
2022-10-19T23:01:18.006Z,99611.46
2022-10-19T23:03:50.549Z,99611.15
2022-10-19T23:06:24.221Z,99613.95
2022-10-19T23:08:59.730Z,99610.29
2022-10-19T23:11:38.795Z,99612.82
2022-10-19T23:14:11.920Z,99619.25
2022-10-19T23:16:45.152Z,99624.02
2022-10-19T23:19:18.291Z,99625.95
2022-10-19T23:21:50.769Z,99627.33
2022-10-19T23:24:24.931Z,99630.19
2022-10-19T23:26:57.126Z,99633.85
2022-10-19T23:29:30.168Z,99636.70
2022-10-19T23:32:04.287Z,99637.89
2022-10-19T23:34:36.658Z,99640.45
2022-10-19T23:37:11.366Z,99637.39
2022-10-19T23:39:43.825Z,99639.45
2022-10-19T23:42:17.438Z,99642.75
2022-10-19T23:44:52.544Z,99645.24
2022-10-19T23:47:26.066Z,99642.70
2022-10-19T23:50:00.549Z,99643.48
2022-10-19T23:52:33.456Z,99643.38
2022-10-19T23:55:07.508Z,99645.50
2022-10-19T23:57:42.334Z,99644.16
